createdAt,value
2023-11-20T00:00:57.963Z,100628.45
2023-11-20T00:03:39.912Z,100603.41
2023-11-20T00:06:08.717Z,100627.21
2023-11-20T00:08:36.848Z,100629.65
2023-11-20T00:11:05.382Z,100625.30
2023-11-20T00:13:33.550Z,100623.02
2023-11-20T00:16:01.955Z,100592.98
2023-11-20T00:18:30.331Z,100606.97
2023-11-20T00:20:58.528Z,100626.77
2023-11-20T00:23:26.655Z,100625.42
2023-11-20T00:25:54.742Z,100631.26
2023-11-20T00:28:22.995Z,100634.19
2023-11-20T00:30:51.581Z,100632.59
2023-11-20T00:33:20.555Z,100626.14
2023-11-20T00:35:48.777Z,100623.52
2023-11-20T00:38:16.919Z,100627.28
2023-11-20T00:40:45.075Z,100630.23
2023-11-20T00:43:14.420Z,100626.91
2023-11-20T00:45:42.717Z,100627.39
2023-11-20T00:48:12.436Z,100618.73
2023-11-20T00:50:40.628Z,100625.96
2023-11-20T00:53:08.812Z,100630.83
2023-11-20T00:55:36.881Z,100631.67
2023-11-20T00:58:05.204Z,100630.30
2023-11-20T01:00:33.515Z,100634.23
2023-11-20T01:03:01.768Z,100637.52
2023-11-20T01:05:30.097Z,100639.09
2023-11-20T01:07:58.255Z,100642.55
2023-11-20T01:10:26.427Z,100640.42
2023-11-20T01:12:54.582Z,100641.27
2023-11-20T01:15:22.835Z,100639.86
2023-11-20T01:17:51.040Z,100640.02
2023-11-20T01:20:19.249Z,100644.86
2023-11-20T01:22:47.343Z,100640.84
2023-11-20T01:25:15.584Z,100640.64
2023-11-20T01:27:44.307Z,100644.63
2023-11-20T01:30:12.685Z,100649.45
2023-11-20T01:32:40.984Z,100651.89
2023-11-20T01:35:10.471Z,100653.09
2023-11-20T01:37:38.720Z,100651.51
2023-11-20T01:40:08.730Z,100657.59
2023-11-20T01:42:36.879Z,100656.86
2023-11-20T01:45:08.579Z,100657.73
2023-11-20T01:47:37.847Z,100657.02
2023-11-20T01:50:09.025Z,100638.09
2023-11-20T01:52:49.735Z,100664.32
2023-11-20T01:55:18.643Z,100645.19
2023-11-20T01:57:50.284Z,100667.78
2023-11-20T02:00:20.821Z,100667.02
2023-11-20T02:02:51.196Z,100673.12
2023-11-20T02:05:20.794Z,100665.08
2023-11-20T02:07:48.960Z,100657.55
2023-11-20T02:10:18.953Z,100650.90
2023-11-20T02:12:47.097Z,100648.10
2023-11-20T02:15:15.550Z,100645.64
2023-11-20T02:17:43.900Z,100654.01
2023-11-20T02:20:12.076Z,100631.59
2023-11-20T02:22:40.339Z,100606.04
2023-11-20T02:25:09.222Z,100648.91
2023-11-20T02:27:58.591Z,100649.41
2023-11-20T02:30:28.547Z,100654.98
2023-11-20T02:32:56.693Z,100654.49
2023-11-20T02:35:26.226Z,100655.54
2023-11-20T02:37:55.492Z,100651.15
2023-11-20T02:40:23.697Z,100649.60
2023-11-20T02:42:51.919Z,100645.77
2023-11-20T02:45:20.766Z,100643.52
2023-11-20T02:47:48.867Z,100645.08
2023-11-20T02:50:17.143Z,100640.16
2023-11-20T02:52:45.266Z,100635.66
2023-11-20T02:55:13.524Z,100613.11
2023-11-20T02:57:41.696Z,100633.25
2023-11-20T03:00:13.924Z,100635.70
2023-11-20T03:02:42.232Z,100633.98
2023-11-20T03:05:10.611Z,100633.29
2023-11-20T03:07:40.826Z,100633.80
2023-11-20T03:10:10.085Z,100632.41
2023-11-20T03:12:38.276Z,100632.58
2023-11-20T03:15:07.356Z,100639.73
2023-11-20T03:17:35.666Z,100613.33
2023-11-20T03:20:05.529Z,100632.77
2023-11-20T03:22:36.746Z,100632.95
2023-11-20T03:25:05.286Z,100630.35
2023-11-20T03:27:33.637Z,100617.52
2023-11-20T03:30:01.952Z,100624.61
2023-11-20T03:32:30.126Z,100625.08
2023-11-20T03:34:58.363Z,100603.23
2023-11-20T03:37:26.423Z,100618.40
2023-11-20T03:39:54.607Z,100629.10
2023-11-20T03:42:23.916Z,100624.59
2023-11-20T03:44:53.518Z,100620.40
2023-11-20T03:47:21.691Z,100617.32
2023-11-20T03:49:49.831Z,100619.59
2023-11-20T03:52:17.918Z,100575.85
2023-11-20T03:54:46.018Z,100620.14
2023-11-20T03:57:14.157Z,100616.06
2023-11-20T03:59:42.264Z,100622.96
2023-11-20T04:02:10.339Z,100620.86
2023-11-20T04:04:38.759Z,100622.95
2023-11-20T04:07:07.062Z,100622.96
2023-11-20T04:09:35.882Z,100617.02
2023-11-20T04:12:05.795Z,100621.02
2023-11-20T04:14:33.903Z,100622.60
2023-11-20T04:17:02.115Z,100620.48
2023-11-20T04:19:30.477Z,100625.36
2023-11-20T04:21:59.032Z,100616.64
2023-11-20T04:24:28.130Z,100616.11
2023-11-20T04:26:56.179Z,100614.54
2023-11-20T04:29:24.236Z,100612.80
2023-11-20T04:31:52.587Z,100611.91
2023-11-20T04:34:20.786Z,100610.17
2023-11-20T04:36:49.079Z,100608.45
2023-11-20T04:39:17.259Z,100604.79
2023-11-20T04:41:45.397Z,100611.40
2023-11-20T04:44:13.531Z,100606.52
2023-11-20T04:46:44.018Z,100610.35
2023-11-20T04:49:12.373Z,100609.83
2023-11-20T04:51:40.496Z,100613.32
2023-11-20T04:54:09.430Z,100615.25
2023-11-20T04:56:37.801Z,100617.52
2023-11-20T04:59:06.024Z,100618.40
2023-11-20T05:01:35.143Z,100620.13
2023-11-20T05:04:04.891Z,100623.80
2023-11-20T05:06:33.125Z,100627.64
2023-11-20T05:09:01.252Z,100629.04
2023-11-20T05:11:29.650Z,100632.89
2023-11-20T05:14:00.666Z,100637.05
2023-11-20T05:16:30.021Z,100636.69
2023-11-20T05:18:58.410Z,100640.33
2023-11-20T05:21:26.503Z,100636.50
2023-11-20T05:23:54.729Z,100637.36
2023-11-20T05:26:23.008Z,100622.94
2023-11-20T05:28:56.391Z,100644.10
2023-11-20T05:31:24.661Z,100634.36
2023-11-20T05:33:52.921Z,100638.88
2023-11-20T05:36:21.726Z,100634.00
2023-11-20T05:38:49.870Z,100610.73
2023-11-20T05:41:18.043Z,100636.63
2023-11-20T05:43:46.418Z,100636.61
2023-11-20T05:46:15.353Z,100616.62
2023-11-20T05:48:43.708Z,100641.29
2023-11-20T05:51:18.096Z,100646.30
2023-11-20T05:53:47.054Z,100643.14
2023-11-20T05:56:15.242Z,100647.65
2023-11-20T05:58:43.396Z,100649.91
2023-11-20T06:01:13.548Z,100649.91
2023-11-20T06:03:41.951Z,100656.19
2023-11-20T06:06:10.135Z,100657.76
2023-11-20T06:08:38.206Z,100652.41
2023-11-20T06:11:06.356Z,100661.58
2023-11-20T06:13:34.581Z,100667.14
2023-11-20T06:16:02.999Z,100667.66
2023-11-20T06:18:33.050Z,100670.44
2023-11-20T06:21:01.333Z,100668.50
2023-11-20T06:23:29.468Z,100646.50
2023-11-20T06:25:57.812Z,100676.01
2023-11-20T06:28:25.944Z,100671.70
2023-11-20T06:30:54.218Z,100679.10
2023-11-20T06:33:22.727Z,100675.15
2023-11-20T06:35:50.859Z,100685.55
2023-11-20T06:38:18.980Z,100690.95
2023-11-20T06:40:47.087Z,100689.90
2023-11-20T06:43:15.309Z,100664.92
2023-11-20T06:45:43.473Z,100691.11
2023-11-20T06:48:12.329Z,100688.48
2023-11-20T06:50:40.465Z,100692.48
2023-11-20T06:53:10.321Z,100682.89
2023-11-20T06:55:38.453Z,100688.14
2023-11-20T06:58:06.596Z,100694.73
2023-11-20T07:00:35.627Z,100693.15
2023-11-20T07:03:05.995Z,100700.09
2023-11-20T07:05:36.338Z,100701.14
2023-11-20T07:08:08.514Z,100703.09
2023-11-20T07:10:37.079Z,100681.34
2023-11-20T07:13:06.175Z,100704.77
2023-11-20T07:15:35.218Z,100706.00
2023-11-20T07:18:04.151Z,100707.04
2023-11-20T07:20:32.528Z,100706.67
2023-11-20T07:23:02.792Z,100709.42
2023-11-20T07:25:35.849Z,100711.52
2023-11-20T07:28:04.353Z,100717.45
2023-11-20T07:30:33.228Z,100719.20
2023-11-20T07:33:02.781Z,100718.66
2023-11-20T07:35:31.719Z,100720.20
2023-11-20T07:38:00.914Z,100721.56
2023-11-20T07:40:29.988Z,100724.49
2023-11-20T07:42:58.070Z,100728.98
2023-11-20T07:45:26.381Z,100722.89
2023-11-20T07:47:54.489Z,100724.09
2023-11-20T07:50:22.830Z,100722.54
2023-11-20T07:52:50.991Z,100721.31
2023-11-20T07:55:19.421Z,100727.75
2023-11-20T07:57:47.758Z,100727.88
2023-11-20T08:00:16.490Z,100735.53
2023-11-20T08:02:44.735Z,100738.35
2023-11-20T08:05:14.172Z,100738.84
2023-11-20T08:07:43.371Z,100737.96
2023-11-20T08:10:12.278Z,100737.80
2023-11-20T08:12:40.941Z,100735.52
2023-11-20T08:15:13.934Z,100738.30
2023-11-20T08:17:42.496Z,100744.05
2023-11-20T08:20:11.168Z,100749.62
2023-11-20T08:22:39.702Z,100745.95
2023-11-20T08:25:08.261Z,100746.13
2023-11-20T08:27:41.045Z,100747.66
2023-11-20T08:30:11.170Z,100744.02
2023-11-20T08:32:39.287Z,100743.52
2023-11-20T08:35:07.812Z,100742.10
2023-11-20T08:37:36.326Z,100743.30
2023-11-20T08:40:08.901Z,100748.33
2023-11-20T08:42:37.054Z,100746.38
2023-11-20T08:45:06.376Z,100749.52
2023-11-20T08:47:36.864Z,100752.30
2023-11-20T08:50:10.047Z,100744.85
2023-11-20T08:52:38.526Z,100743.92
2023-11-20T08:55:08.311Z,100742.00
2023-11-20T08:57:37.705Z,100747.24
2023-11-20T09:00:06.529Z,100751.93
2023-11-20T09:02:34.781Z,100757.66
2023-11-20T09:05:03.026Z,100755.75
2023-11-20T09:07:31.479Z,100764.42
2023-11-20T09:09:59.687Z,100763.00
2023-11-20T09:12:27.774Z,100765.74
2023-11-20T09:14:55.886Z,100763.45
2023-11-20T09:17:24.094Z,100763.95
2023-11-20T09:19:52.952Z,100759.22
2023-11-20T09:22:21.061Z,100762.84
2023-11-20T09:24:56.302Z,100762.51
2023-11-20T09:27:27.399Z,100758.84
2023-11-20T09:29:55.998Z,100757.25
2023-11-20T09:32:24.096Z,100754.95
2023-11-20T09:34:52.276Z,100755.10
2023-11-20T09:37:20.417Z,100751.23
2023-11-20T09:39:49.880Z,100746.20
2023-11-20T09:42:23.418Z,100751.53
2023-11-20T09:44:54.616Z,100749.25
2023-11-20T09:47:22.876Z,100750.48
2023-11-20T09:49:53.824Z,100748.38
2023-11-20T09:52:25.386Z,100745.89
2023-11-20T09:54:59.431Z,100742.90
2023-11-20T09:57:28.576Z,100743.23
2023-11-20T09:59:58.265Z,100731.44
2023-11-20T10:02:29.645Z,100740.10
2023-11-20T10:04:58.858Z,100733.78
2023-11-20T10:07:32.709Z,100738.30
2023-11-20T10:10:03.099Z,100740.00
2023-11-20T10:12:35.422Z,100733.63
2023-11-20T10:15:05.572Z,100743.63
2023-11-20T10:17:38.019Z,100734.66
2023-11-20T10:20:10.857Z,100736.91
2023-11-20T10:22:39.072Z,100737.43
2023-11-20T10:25:07.987Z,100740.78
2023-11-20T10:27:36.320Z,100740.64
2023-11-20T10:30:04.981Z,100732.63
2023-11-20T10:32:33.609Z,100735.94
2023-11-20T10:35:18.454Z,100735.06
2023-11-20T10:38:00.017Z,100734.91
2023-11-20T10:40:28.949Z,100737.15
2023-11-20T10:42:59.312Z,100732.44
2023-11-20T10:45:27.459Z,100739.68
2023-11-20T10:47:56.841Z,100736.52
2023-11-20T10:50:26.672Z,100733.20
2023-11-20T10:52:58.219Z,100731.09
2023-11-20T10:55:32.778Z,100705.75
2023-11-20T10:58:05.352Z,100704.20
2023-11-20T11:00:35.646Z,100729.40
2023-11-20T11:03:14.693Z,100727.50
2023-11-20T11:05:47.894Z,100726.15
2023-11-20T11:08:19.100Z,100727.73
2023-11-20T11:10:49.471Z,100732.98
2023-11-20T11:13:21.468Z,100734.39
2023-11-20T11:15:53.640Z,100737.08
2023-11-20T11:18:27.470Z,100740.61
2023-11-20T11:20:57.157Z,100738.88
2023-11-20T11:23:37.300Z,100736.48
2023-11-20T11:26:14.017Z,100743.10
2023-11-20T11:28:51.265Z,100740.54
2023-11-20T11:31:22.076Z,100745.27
2023-11-20T11:34:09.495Z,100742.54
2023-11-20T11:37:09.884Z,100742.24
2023-11-20T11:39:45.552Z,100726.15
2023-11-20T11:42:20.405Z,100732.36
2023-11-20T11:45:04.851Z,100732.90
2023-11-20T11:47:35.751Z,100731.34
2023-11-20T11:50:06.007Z,100728.73
2023-11-20T11:52:37.790Z,100729.43
2023-11-20T11:55:18.139Z,100730.15
2023-11-20T11:58:04.499Z,100719.57
2023-11-20T12:00:33.619Z,100723.86
2023-11-20T12:03:03.384Z,100723.20
2023-11-20T12:05:33.270Z,100724.48
2023-11-20T12:08:04.431Z,100728.69
2023-11-20T12:10:41.673Z,100732.05
2023-11-20T12:13:11.926Z,100734.04
2023-11-20T12:15:48.785Z,100732.88
2023-11-20T12:18:33.491Z,100732.92
2023-11-20T12:21:08.543Z,100728.08
2023-11-20T12:23:42.828Z,100725.41
2023-11-20T12:26:13.676Z,100722.63
2023-11-20T12:28:43.032Z,100695.05
2023-11-20T12:31:12.924Z,100725.96
2023-11-20T12:33:44.683Z,100731.87
2023-11-20T12:36:14.045Z,100731.85
2023-11-20T12:38:47.472Z,100734.63
2023-11-20T12:41:17.056Z,100735.67
2023-11-20T12:43:45.442Z,100735.54
2023-11-20T12:46:19.099Z,100736.13
2023-11-20T12:48:48.094Z,100732.34
2023-11-20T12:51:16.558Z,100736.91
2023-11-20T12:53:45.155Z,100736.21
2023-11-20T12:56:15.477Z,100737.27
2023-11-20T12:58:46.779Z,100736.59
2023-11-20T13:01:15.135Z,100736.77
2023-11-20T13:03:44.117Z,100737.36
2023-11-20T13:06:13.003Z,100736.48
2023-11-20T13:08:41.376Z,100743.11
2023-11-20T13:11:12.791Z,100744.86
2023-11-20T13:13:43.551Z,100744.23
2023-11-20T13:16:17.609Z,100750.63
2023-11-20T13:18:48.738Z,100751.70
2023-11-20T13:21:24.104Z,100756.60
2023-11-20T13:24:02.484Z,100760.25
2023-11-20T13:26:30.851Z,100757.30
2023-11-20T13:29:00.597Z,100757.30
2023-11-20T13:31:36.548Z,100756.27
2023-11-20T13:34:08.318Z,100758.23
2023-11-20T13:36:39.215Z,100760.84
2023-11-20T13:39:20.620Z,100760.33
2023-11-20T13:41:49.133Z,100761.39
2023-11-20T13:44:17.300Z,100764.38
2023-11-20T13:46:45.470Z,100770.88
2023-11-20T13:49:15.757Z,100765.41
2023-11-20T13:51:44.400Z,100773.41
2023-11-20T13:54:12.528Z,100777.08
2023-11-20T13:56:41.225Z,100778.84
2023-11-20T13:59:12.255Z,100777.14
2023-11-20T14:01:40.882Z,100779.77
2023-11-20T14:04:13.115Z,100785.23
2023-11-20T14:06:42.301Z,100787.54
2023-11-20T14:09:10.485Z,100788.13
2023-11-20T14:11:38.722Z,100788.32
2023-11-20T14:14:06.971Z,100785.88
2023-11-20T14:16:35.355Z,100786.76
2023-11-20T14:19:04.353Z,100791.30
2023-11-20T14:21:32.545Z,100781.70
2023-11-20T14:24:00.653Z,100793.27
2023-11-20T14:26:34.230Z,100799.03
2023-11-20T14:29:04.417Z,100804.45
2023-11-20T14:31:32.735Z,100807.42
2023-11-20T14:34:01.178Z,100804.30
2023-11-20T14:36:29.432Z,100807.30
2023-11-20T14:38:59.403Z,100800.73
2023-11-20T14:41:28.257Z,100812.70
2023-11-20T14:43:56.499Z,100810.97
2023-11-20T14:46:25.018Z,100812.60
2023-11-20T14:48:53.189Z,100815.57
2023-11-20T14:51:22.162Z,100819.40
2023-11-20T14:53:52.586Z,100781.29
2023-11-20T14:56:20.842Z,100818.25
2023-11-20T14:58:49.215Z,100827.61
2023-11-20T15:01:19.324Z,100820.87
2023-11-20T15:03:47.774Z,100824.82
2023-11-20T15:06:16.011Z,100826.90
2023-11-20T15:08:44.274Z,100828.45
2023-11-20T15:11:12.474Z,100827.08
2023-11-20T15:13:40.684Z,100826.91
2023-11-20T15:16:09.652Z,100828.52
2023-11-20T15:18:38.535Z,100830.48
2023-11-20T15:21:08.412Z,100829.47
2023-11-20T15:23:37.234Z,100825.65
2023-11-20T15:26:05.541Z,100827.42
2023-11-20T15:28:33.690Z,100832.48
2023-11-20T15:31:01.922Z,100833.92
2023-11-20T15:33:30.232Z,100836.04
2023-11-20T15:35:58.298Z,100838.88
2023-11-20T15:38:26.493Z,100842.38
2023-11-20T15:40:54.871Z,100848.50
2023-11-20T15:43:23.199Z,100852.36
2023-11-20T15:45:54.726Z,100855.00
2023-11-20T15:48:24.905Z,100865.17
2023-11-20T15:50:53.386Z,100864.81
2023-11-20T15:53:23.091Z,100868.86
2023-11-20T15:55:51.400Z,100871.84
2023-11-20T15:58:19.536Z,100854.75
2023-11-20T16:00:47.718Z,100876.02
2023-11-20T16:03:19.629Z,100882.43
2023-11-20T16:05:49.289Z,100891.31
2023-11-20T16:08:18.582Z,100895.34
2023-11-20T16:10:48.617Z,100895.52
2023-11-20T16:13:16.784Z,100900.42
2023-11-20T16:15:46.990Z,100897.49
2023-11-20T16:18:16.271Z,100897.50
2023-11-20T16:20:45.924Z,100897.52
2023-11-20T16:23:17.140Z,100897.52
2023-11-20T16:25:48.372Z,100901.38
2023-11-20T16:28:17.210Z,100901.40
2023-11-20T16:30:48.537Z,100900.70
2023-11-20T16:33:16.787Z,100902.11
2023-11-20T16:35:45.531Z,100898.49
2023-11-20T16:38:14.375Z,100899.89
2023-11-20T16:40:42.768Z,100905.64
2023-11-20T16:43:11.125Z,100904.25
2023-11-20T16:45:39.758Z,100906.55
2023-11-20T16:48:08.400Z,100906.03
2023-11-20T16:50:37.766Z,100912.48
2023-11-20T16:53:05.918Z,100909.70
2023-11-20T16:55:34.892Z,100915.79
2023-11-20T16:58:03.367Z,100872.77
2023-11-20T17:00:32.282Z,100925.54
2023-11-20T17:03:00.612Z,100925.19
2023-11-20T17:05:29.658Z,100926.06
2023-11-20T17:07:57.811Z,100932.16
2023-11-20T17:10:25.959Z,100930.59
2023-11-20T17:12:54.090Z,100931.83
2023-11-20T17:15:23.153Z,100923.63
2023-11-20T17:17:51.270Z,100929.02
2023-11-20T17:20:19.773Z,100931.45
2023-11-20T17:22:48.105Z,100934.77
2023-11-20T17:25:17.829Z,100931.80
2023-11-20T17:27:45.945Z,100931.81
2023-11-20T17:30:14.148Z,100922.63
2023-11-20T17:32:42.874Z,100920.55
2023-11-20T17:35:11.245Z,100919.67
2023-11-20T17:37:39.486Z,100919.14
2023-11-20T17:40:10.939Z,100922.64
2023-11-20T17:42:39.830Z,100907.14
2023-11-20T17:45:09.514Z,100929.83
2023-11-20T17:47:37.744Z,100929.36
2023-11-20T17:50:08.977Z,100934.42
2023-11-20T17:52:37.753Z,100939.34
2023-11-20T17:55:09.093Z,100940.77
2023-11-20T17:57:37.513Z,100941.13
2023-11-20T18:00:10.325Z,100921.08
2023-11-20T18:02:41.824Z,100939.73
2023-11-20T18:05:11.366Z,100936.61
2023-11-20T18:07:40.136Z,100936.79
2023-11-20T18:10:12.755Z,100938.39
2023-11-20T18:12:41.521Z,100941.50
2023-11-20T18:15:12.030Z,100943.59
2023-11-20T18:17:42.711Z,100943.77
2023-11-20T18:20:13.250Z,100944.83
2023-11-20T18:22:44.209Z,100949.00
2023-11-20T18:25:13.201Z,100938.61
2023-11-20T18:27:42.203Z,100952.34
2023-11-20T18:30:12.108Z,100956.35
2023-11-20T18:32:42.005Z,100937.68
2023-11-20T18:35:10.426Z,100961.38
2023-11-20T18:37:41.087Z,100966.58
2023-11-20T18:40:10.356Z,100966.39
2023-11-20T18:42:43.709Z,100969.15
2023-11-20T18:45:12.713Z,100977.14
2023-11-20T18:47:41.079Z,100980.27
2023-11-20T18:50:09.967Z,100985.47
2023-11-20T18:52:38.155Z,100988.77
2023-11-20T18:55:06.914Z,100992.97
2023-11-20T18:57:35.101Z,100964.44
2023-11-20T19:00:07.553Z,100998.18
2023-11-20T19:02:36.557Z,100998.23
2023-11-20T19:05:05.885Z,101001.73
2023-11-20T19:07:34.859Z,100997.07
2023-11-20T19:10:03.894Z,100998.63
2023-11-20T19:12:32.216Z,100997.76
2023-11-20T19:15:00.452Z,101003.49
2023-11-20T19:17:30.922Z,101001.80
2023-11-20T19:19:59.123Z,101000.75
2023-11-20T19:22:27.274Z,100999.89
2023-11-20T19:24:55.877Z,101004.41
2023-11-20T19:27:24.196Z,101004.08
2023-11-20T19:29:54.044Z,100990.42
2023-11-20T19:32:22.286Z,101006.17
2023-11-20T19:34:50.382Z,101012.97
2023-11-20T19:37:18.595Z,101002.73
2023-11-20T19:39:47.829Z,101005.85
2023-11-20T19:42:16.060Z,101007.95
2023-11-20T19:44:45.529Z,101006.02
2023-11-20T19:47:13.847Z,100992.91
2023-11-20T19:49:42.266Z,101013.70
2023-11-20T19:52:10.630Z,101015.27
2023-11-20T19:54:39.424Z,100999.88
2023-11-20T19:57:07.917Z,101024.35
2023-11-20T19:59:36.098Z,101021.23
2023-11-20T20:02:06.097Z,101022.65
2023-11-20T20:04:34.381Z,101007.59
2023-11-20T20:07:02.514Z,101009.14
2023-11-20T20:09:30.652Z,101024.91
2023-11-20T20:11:59.993Z,101025.95
2023-11-20T20:14:28.091Z,101028.90
2023-11-20T20:17:01.178Z,101027.50
2023-11-20T20:19:29.575Z,101026.09
2023-11-20T20:22:00.455Z,101017.94
2023-11-20T20:24:28.805Z,101025.77
2023-11-20T20:26:56.882Z,101025.58
2023-11-20T20:29:25.132Z,101030.96
2023-11-20T20:31:53.324Z,101028.21
2023-11-20T20:34:21.575Z,101017.15
2023-11-20T20:36:49.720Z,101036.90
2023-11-20T20:39:17.872Z,101040.73
2023-11-20T20:41:45.975Z,101046.13
2023-11-20T20:44:14.110Z,101044.90
2023-11-20T20:46:42.369Z,101047.86
2023-11-20T20:49:10.587Z,101028.45
2023-11-20T20:51:38.699Z,101042.82
2023-11-20T20:54:07.010Z,101046.48
2023-11-20T20:56:35.205Z,101043.55
2023-11-20T20:59:05.864Z,101049.29
2023-11-20T21:01:37.119Z,101051.89
2023-11-20T21:04:05.583Z,101056.41
2023-11-20T21:06:35.543Z,101060.58
2023-11-20T21:09:06.244Z,101052.05
2023-11-20T21:11:34.925Z,101056.41
2023-11-20T21:14:02.998Z,101057.98
2023-11-20T21:16:31.565Z,101057.27
2023-11-20T21:18:59.730Z,101055.21
2023-11-20T21:21:27.893Z,101072.39
2023-11-20T21:23:57.189Z,101068.05
2023-11-20T21:26:25.369Z,101073.23
2023-11-20T21:28:53.504Z,101072.55
2023-11-20T21:31:23.407Z,101067.16
2023-11-20T21:33:51.587Z,101069.07
2023-11-20T21:36:23.017Z,101071.86
2023-11-20T21:38:51.435Z,101077.24
2023-11-20T21:41:19.521Z,101072.55
2023-11-20T21:43:47.714Z,101074.63
2023-11-20T21:46:18.443Z,101075.30
2023-11-20T21:48:47.892Z,101074.08
2023-11-20T21:51:16.197Z,101073.92
2023-11-20T21:53:44.346Z,101073.06
2023-11-20T21:56:12.416Z,101071.67
2023-11-20T21:58:40.599Z,101072.02
2023-11-20T22:01:09.360Z,101076.88
2023-11-20T22:03:37.777Z,101079.65
2023-11-20T22:06:06.511Z,101075.98
2023-11-20T22:08:34.625Z,101079.12
2023-11-20T22:11:02.783Z,101076.86
2023-11-20T22:13:31.034Z,101080.69
2023-11-20T22:15:59.190Z,101076.00
2023-11-20T22:18:28.057Z,101086.42
2023-11-20T22:20:56.208Z,101088.15
2023-11-20T22:23:24.593Z,101088.48
2023-11-20T22:25:53.347Z,101087.09
2023-11-20T22:28:21.616Z,101089.52
2023-11-20T22:30:49.710Z,101089.01
2023-11-20T22:33:17.852Z,101096.11
2023-11-20T22:35:46.178Z,101093.32
2023-11-20T22:38:14.453Z,101090.89
2023-11-20T22:40:42.758Z,101091.77
2023-11-20T22:43:11.832Z,101090.06
2023-11-20T22:45:41.062Z,101097.53
2023-11-20T22:48:09.626Z,101101.66
2023-11-20T22:50:37.820Z,101105.66
2023-11-20T22:53:06.025Z,101107.94
2023-11-20T22:55:34.247Z,101111.75
2023-11-20T22:58:02.915Z,101097.38
2023-11-20T23:00:38.179Z,101117.48
2023-11-20T23:03:10.499Z,101124.42
2023-11-20T23:05:39.056Z,101123.02
2023-11-20T23:08:09.769Z,101115.73
2023-11-20T23:10:38.751Z,101123.20
2023-11-20T23:13:07.416Z,101128.05
2023-11-20T23:15:36.875Z,101130.14
2023-11-20T23:18:11.771Z,101136.04
2023-11-20T23:20:39.993Z,101133.42
2023-11-20T23:23:09.504Z,101133.08
2023-11-20T23:25:38.115Z,101138.63
2023-11-20T23:28:06.360Z,101133.60
2023-11-20T23:30:35.463Z,101138.10
2023-11-20T23:33:05.221Z,101136.87
2023-11-20T23:35:34.184Z,101139.11
2023-11-20T23:38:02.391Z,101137.89
2023-11-20T23:40:31.706Z,101129.89
2023-11-20T23:43:00.012Z,101134.90
2023-11-20T23:45:28.262Z,101131.41
2023-11-20T23:47:57.916Z,101125.69
2023-11-20T23:50:26.820Z,101114.27
2023-11-20T23:52:55.574Z,101132.14
2023-11-20T23:55:24.412Z,101132.33
2023-11-20T23:57:52.569Z,101116.75
